createdAt,value
2023-03-07T00:00:47.920Z,93018.81
2023-03-07T00:03:22.202Z,93023.47
2023-03-07T00:06:07.820Z,93006.19
2023-03-07T00:08:40.446Z,93010.41
2023-03-07T00:11:15.190Z,93004.16
2023-03-07T00:14:48.432Z,93007.56
2023-03-07T00:23:42.782Z,93006.13
2023-03-07T00:26:25.403Z,93005.66
2023-03-07T00:29:03.407Z,93000.53
2023-03-07T00:32:05.470Z,93006.97
2023-03-07T00:34:39.239Z,93004.34
2023-03-07T00:37:16.802Z,93003.38
2023-03-07T00:47:18.517Z,93007.75
2023-03-07T00:50:44.507Z,93006.97
2023-03-07T00:57:06.028Z,92996.72
2023-03-07T00:59:37.943Z,92992.50
2023-03-07T01:02:17.297Z,92979.91
2023-03-07T01:04:52.860Z,92968.97
2023-03-07T01:07:46.678Z,92983.81
2023-03-07T01:40:58.998Z,92961.81
2023-03-07T01:49:05.197Z,92967.69
2023-03-07T01:56:48.442Z,92955.69
2023-03-07T02:00:43.565Z,92948.97
2023-03-07T02:11:30.200Z,92942.50
2023-03-07T02:22:33.762Z,92926.34
2023-03-07T02:36:54.095Z,92911.72
2023-03-07T02:44:07.241Z,92909.72
2023-03-07T02:47:24.235Z,92910.00
2023-03-07T02:50:38.265Z,92910.91
2023-03-07T02:54:07.056Z,92915.69
2023-03-07T03:01:56.248Z,92914.63
2023-03-07T03:51:54.316Z,92905.22
2023-03-07T04:31:12.682Z,92881.47
2023-03-07T04:35:26.089Z,92878.38
2023-03-07T04:38:25.828Z,92887.22
2023-03-07T04:42:12.238Z,92877.63
2023-03-07T04:45:46.333Z,92884.53
2023-03-07T04:52:22.745Z,92875.25
2023-03-07T04:59:48.042Z,92875.91
2023-03-07T05:06:43.470Z,92859.66
2023-03-07T05:09:22.247Z,92854.88
2023-03-07T05:16:59.409Z,92854.75
2023-03-07T05:47:59.584Z,92840.63
2023-03-07T05:50:39.433Z,92845.91
2023-03-07T05:59:55.149Z,92842.50
2023-03-07T06:03:08.694Z,92843.75
2023-03-07T06:05:52.673Z,92843.16
2023-03-07T06:09:07.261Z,92837.75
2023-03-07T06:11:53.617Z,92844.09
2023-03-07T06:18:49.193Z,92850.34
2023-03-07T06:22:44.572Z,92848.94
2023-03-07T06:33:38.949Z,92839.31
2023-03-07T06:36:28.559Z,92837.28
2023-03-07T06:54:37.001Z,92821.50
2023-03-07T07:06:51.380Z,92828.31
2023-03-07T07:08:27.574Z,92826.16
2023-03-07T07:11:00.913Z,92826.66
2023-03-07T07:13:31.624Z,92826.06
2023-03-07T07:16:28.411Z,92829.03
2023-03-07T07:31:42.841Z,92842.47
2023-03-07T07:34:14.487Z,92826.16
2023-03-07T07:36:55.369Z,92828.31
2023-03-07T07:45:48.678Z,92826.13
2023-03-07T07:48:20.835Z,92820.06
2023-03-07T07:51:05.299Z,92827.38
2023-03-07T07:53:46.441Z,92818.81
2023-03-07T07:56:15.202Z,92834.25
2023-03-07T07:59:12.774Z,92827.41
2023-03-07T08:01:41.532Z,92831.56
2023-03-07T08:07:19.033Z,92828.00
2023-03-07T08:09:52.665Z,92833.84
2023-03-07T08:12:32.024Z,92826.06
2023-03-07T08:15:02.568Z,92819.06
2023-03-07T08:17:30.963Z,92825.53
2023-03-07T08:20:01.821Z,92823.56
2023-03-07T08:22:28.565Z,92812.78
2023-03-07T08:25:00.327Z,92817.59
2023-03-07T08:27:30.371Z,92814.16
2023-03-07T08:30:08.543Z,92804.88
2023-03-07T08:32:41.878Z,92805.47
2023-03-07T08:35:10.590Z,92806.94
2023-03-07T08:37:49.873Z,92804.03
2023-03-07T08:41:40.910Z,92816.13
2023-03-07T08:47:21.510Z,92799.84
2023-03-07T08:50:08.002Z,92794.84
2023-03-07T08:52:34.877Z,92802.56
2023-03-07T08:55:01.682Z,92797.63
2023-03-07T08:57:28.383Z,92791.31
2023-03-07T08:59:55.102Z,92772.41
2023-03-07T09:02:21.742Z,92779.19
2023-03-07T09:04:48.544Z,92782.00
2023-03-07T09:07:15.156Z,92778.50
2023-03-07T09:09:42.018Z,92767.63
2023-03-07T09:12:08.865Z,92777.00
2023-03-07T09:14:35.567Z,92766.59
2023-03-07T09:17:02.875Z,92766.66
2023-03-07T09:19:29.578Z,92754.28
2023-03-07T09:21:56.386Z,92752.06
2023-03-07T09:24:23.055Z,92768.19
2023-03-07T09:26:49.724Z,92763.81
2023-03-07T09:29:16.855Z,92769.97
2023-03-07T09:31:44.308Z,92757.72
2023-03-07T09:34:11.368Z,92760.88
2023-03-07T09:36:38.086Z,92760.03
2023-03-07T09:39:06.231Z,92759.84
2023-03-07T09:41:56.943Z,92759.53
2023-03-07T09:44:48.609Z,92763.84
2023-03-07T09:47:57.381Z,92746.44
2023-03-07T09:50:55.997Z,92752.22
2023-03-07T09:53:31.783Z,92746.31
2023-03-07T09:56:01.467Z,92749.34
2023-03-07T09:58:28.898Z,92723.09
2023-03-07T10:01:01.558Z,92734.59
2023-03-07T10:03:53.661Z,92723.75
2023-03-07T10:06:26.500Z,92736.78
2023-03-07T10:08:55.290Z,92732.91
2023-03-07T10:11:23.186Z,92730.16
2023-03-07T10:14:24.288Z,92741.22
2023-03-07T10:17:27.158Z,92730.69
2023-03-07T10:20:08.251Z,92726.75
2023-03-07T10:22:54.961Z,92715.09
2023-03-07T10:25:26.172Z,92717.75
2023-03-07T10:28:10.999Z,92711.81
2023-03-07T10:30:37.628Z,92708.13
2023-03-07T10:33:12.790Z,92701.44
2023-03-07T10:35:42.930Z,92717.91
2023-03-07T10:38:33.299Z,92714.97
2023-03-07T10:41:15.954Z,92706.31
2023-03-07T10:43:44.592Z,92714.38
2023-03-07T10:46:24.599Z,92704.81
2023-03-07T10:48:59.194Z,92704.81
2023-03-07T10:51:46.696Z,92708.56
2023-03-07T10:54:21.326Z,92695.19
2023-03-07T10:57:11.316Z,92698.16
2023-03-07T10:59:40.506Z,92688.88
2023-03-07T11:02:31.031Z,92693.72
2023-03-07T11:04:58.914Z,92693.84
2023-03-07T11:07:31.111Z,92696.94
2023-03-07T11:09:59.938Z,92696.19
2023-03-07T11:12:29.333Z,92681.47
2023-03-07T11:15:18.658Z,92674.50
2023-03-07T11:17:47.723Z,92681.44
2023-03-07T11:20:25.930Z,92673.69
2023-03-07T11:23:23.681Z,92673.03
2023-03-07T11:25:51.590Z,92658.31
2023-03-07T11:28:24.076Z,92685.88
2023-03-07T11:30:53.968Z,92661.28
2023-03-07T11:33:32.814Z,92665.91
2023-03-07T11:36:08.216Z,92664.34
2023-03-07T11:38:54.034Z,92663.41
2023-03-07T11:41:30.848Z,92668.47
2023-03-07T11:44:06.224Z,92664.69
2023-03-07T11:46:45.156Z,92659.13
2023-03-07T11:49:36.686Z,92657.31
2023-03-07T11:52:16.487Z,92654.19
2023-03-07T11:54:49.366Z,92651.94
2023-03-07T11:57:54.120Z,92647.44
2023-03-07T12:00:47.071Z,92644.59
2023-03-07T12:03:36.684Z,92633.59
2023-03-07T12:06:38.803Z,92647.97
2023-03-07T12:09:32.361Z,92651.31
2023-03-07T12:12:16.596Z,92645.69
2023-03-07T12:15:01.398Z,92653.84
2023-03-07T12:17:55.920Z,92651.72
2023-03-07T12:20:28.704Z,92653.94
2023-03-07T12:23:10.785Z,92647.28
2023-03-07T12:25:41.733Z,92630.81
2023-03-07T12:28:14.463Z,92632.53
2023-03-07T12:31:03.082Z,92622.56
2023-03-07T12:33:48.663Z,92620.94
2023-03-07T12:36:39.216Z,92616.84
2023-03-07T12:39:24.713Z,92608.50
2023-03-07T12:42:28.832Z,92621.53
2023-03-07T12:45:02.124Z,92614.09
2023-03-07T12:47:40.215Z,92594.84
2023-03-07T12:50:51.938Z,92600.88
2023-03-07T12:53:35.560Z,92597.72
2023-03-07T12:56:15.316Z,92597.84
2023-03-07T12:58:54.239Z,92588.88
2023-03-07T13:01:23.996Z,92585.75
2023-03-07T13:04:03.916Z,92576.59
2023-03-07T13:06:32.257Z,92576.25
2023-03-07T13:09:01.610Z,92577.72
2023-03-07T13:11:30.982Z,92561.19
2023-03-07T13:14:02.619Z,92569.78
2023-03-07T13:16:32.366Z,92563.22
2023-03-07T13:19:30.880Z,92573.03
2023-03-07T13:21:58.479Z,92561.16
2023-03-07T13:24:42.330Z,92563.47
2023-03-07T13:27:22.017Z,92558.28
2023-03-07T13:30:10.684Z,92550.81
2023-03-07T13:32:52.635Z,92562.22
2023-03-07T13:35:31.333Z,92558.16
2023-03-07T13:38:35.703Z,92557.47
2023-03-07T13:41:08.786Z,92547.84
2023-03-07T13:43:56.875Z,92557.31
2023-03-07T13:46:38.807Z,92554.00
2023-03-07T13:49:05.538Z,92559.81
2023-03-07T13:51:32.194Z,92567.50
2023-03-07T13:54:10.832Z,92561.50
2023-03-07T13:56:42.378Z,92568.78
2023-03-07T13:59:30.572Z,92561.09
2023-03-07T14:02:04.593Z,92558.97
2023-03-07T14:04:41.536Z,92566.78
2023-03-07T14:07:51.734Z,92559.94
2023-03-07T14:10:26.414Z,92568.09
2023-03-07T14:13:20.803Z,92565.22
2023-03-07T14:16:14.927Z,92564.81
2023-03-07T14:19:11.559Z,92568.16
2023-03-07T14:21:38.146Z,92560.75
2023-03-07T14:24:18.897Z,92554.19
2023-03-07T14:26:51.068Z,92556.50
2023-03-07T14:29:26.608Z,92557.06
2023-03-07T14:31:56.984Z,92549.69
2023-03-07T14:34:33.964Z,92558.66
2023-03-07T14:37:05.283Z,92556.63
2023-03-07T14:40:00.086Z,92562.97
2023-03-07T14:42:48.445Z,92559.59
2023-03-07T14:45:27.812Z,92562.56
2023-03-07T14:48:00.609Z,92567.91
2023-03-07T14:50:29.531Z,92550.59
2023-03-07T14:53:19.618Z,92569.03
2023-03-07T14:55:49.101Z,92563.44
2023-03-07T14:58:27.941Z,92559.47
2023-03-07T15:01:05.836Z,92563.53
2023-03-07T15:03:32.915Z,92574.69
2023-03-07T15:06:01.905Z,92567.88
2023-03-07T15:08:31.608Z,92576.44
2023-03-07T15:11:16.951Z,92578.88
2023-03-07T15:14:02.194Z,92579.31
2023-03-07T15:16:36.373Z,92575.63
2023-03-07T15:19:06.414Z,92564.66
2023-03-07T15:21:40.375Z,92582.16
2023-03-07T15:24:17.798Z,92580.41
2023-03-07T15:26:52.835Z,92573.28
2023-03-07T15:29:24.833Z,92575.69
2023-03-07T15:31:54.513Z,92568.84
2023-03-07T15:34:27.676Z,92574.03
2023-03-07T15:36:54.731Z,92575.19
2023-03-07T15:39:36.893Z,92581.94
2023-03-07T15:42:08.529Z,92583.22
2023-03-07T15:44:36.618Z,92579.06
2023-03-07T15:47:14.191Z,92583.59
2023-03-07T15:49:50.336Z,92582.59
2023-03-07T15:52:37.535Z,92588.44
2023-03-07T15:55:08.258Z,92584.94
2023-03-07T15:57:48.749Z,92580.28
2023-03-07T16:00:42.251Z,92580.91
2023-03-07T16:03:26.077Z,92581.22
2023-03-07T16:05:53.850Z,92579.69
2023-03-07T16:08:21.136Z,92570.31
2023-03-07T16:10:57.749Z,92572.22
2023-03-07T16:13:29.226Z,92574.22
2023-03-07T16:16:09.181Z,92576.91
2023-03-07T16:18:36.356Z,92570.19
2023-03-07T16:21:03.275Z,92566.84
2023-03-07T16:23:31.440Z,92585.34
2023-03-07T16:26:01.829Z,92578.47
2023-03-07T16:28:28.762Z,92579.69
2023-03-07T16:30:55.640Z,92583.13
2023-03-07T16:33:22.274Z,92571.41
2023-03-07T16:35:49.053Z,92582.00
2023-03-07T16:38:15.814Z,92574.03
2023-03-07T16:40:44.693Z,92578.03
2023-03-07T16:43:31.090Z,92564.09
2023-03-07T16:45:58.046Z,92573.06
2023-03-07T16:48:24.892Z,92566.53
2023-03-07T16:50:51.586Z,92584.13
2023-03-07T16:53:18.295Z,92581.56
2023-03-07T16:55:46.057Z,92578.78
2023-03-07T16:58:21.297Z,92594.16
2023-03-07T17:00:48.046Z,92580.91
2023-03-07T17:03:14.811Z,92591.19
2023-03-07T17:05:41.579Z,92597.59
2023-03-07T17:08:08.824Z,92605.50
2023-03-07T17:10:36.669Z,92600.84
2023-03-07T17:13:07.318Z,92604.94
2023-03-07T17:15:34.372Z,92607.59
2023-03-07T17:18:01.259Z,92602.50
2023-03-07T17:20:28.646Z,92612.22
2023-03-07T17:22:55.362Z,92610.09
2023-03-07T17:25:23.026Z,92614.47
2023-03-07T17:27:57.719Z,92612.94
2023-03-07T17:30:26.681Z,92625.47
2023-03-07T17:32:53.574Z,92632.59
2023-03-07T17:35:20.712Z,92634.56
2023-03-07T17:37:50.330Z,92637.59
2023-03-07T17:40:17.211Z,92636.31
2023-03-07T17:42:44.488Z,92628.97
2023-03-07T17:45:12.989Z,92636.91
2023-03-07T17:47:39.849Z,92629.47
2023-03-07T17:50:07.585Z,92629.19
2023-03-07T17:52:34.876Z,92637.59
2023-03-07T17:55:01.664Z,92641.81
2023-03-07T17:57:28.742Z,92644.44
2023-03-07T17:59:55.728Z,92655.97
2023-03-07T18:02:22.471Z,92661.25
2023-03-07T18:04:51.486Z,92667.19
2023-03-07T18:07:19.788Z,92674.03
2023-03-07T18:09:49.770Z,92675.63
2023-03-07T18:12:18.238Z,92673.38
2023-03-07T18:14:44.966Z,92668.13
2023-03-07T18:17:11.615Z,92670.69
2023-03-07T18:19:39.107Z,92673.94
2023-03-07T18:22:06.112Z,92680.31
2023-03-07T18:24:33.964Z,92682.19
2023-03-07T18:27:03.375Z,92673.97
2023-03-07T18:29:30.753Z,92679.56
2023-03-07T18:31:57.713Z,92679.72
2023-03-07T18:34:25.009Z,92677.41
2023-03-07T18:36:53.079Z,92687.81
2023-03-07T18:39:24.140Z,92702.44
2023-03-07T18:41:51.243Z,92699.50
2023-03-07T18:44:18.668Z,92702.31
2023-03-07T18:46:45.771Z,92710.41
2023-03-07T18:49:12.702Z,92713.19
2023-03-07T18:51:39.828Z,92713.34
2023-03-07T18:54:06.513Z,92701.38
2023-03-07T18:56:33.477Z,92712.56
2023-03-07T18:59:00.168Z,92708.06
2023-03-07T19:01:31.054Z,92719.25
2023-03-07T19:04:01.358Z,92720.91
2023-03-07T19:06:34.968Z,92712.97
2023-03-07T19:09:03.650Z,92724.47
2023-03-07T19:11:31.004Z,92720.75
2023-03-07T19:13:58.003Z,92725.13
2023-03-07T19:16:27.444Z,92720.19
2023-03-07T19:18:54.876Z,92734.66
2023-03-07T19:21:23.814Z,92738.56
2023-03-07T19:23:50.977Z,92740.13
2023-03-07T19:26:19.543Z,92740.44
2023-03-07T19:28:48.761Z,92739.66
2023-03-07T19:31:20.971Z,92742.31
2023-03-07T19:33:49.589Z,92729.44
2023-03-07T19:36:21.996Z,92736.91
2023-03-07T19:38:49.438Z,92736.63
2023-03-07T19:41:18.624Z,92734.75
2023-03-07T19:43:45.522Z,92748.16
2023-03-07T19:46:14.116Z,92750.94
2023-03-07T19:48:41.031Z,92752.66
2023-03-07T19:51:20.028Z,92749.69
2023-03-07T19:53:47.439Z,92735.50
2023-03-07T19:56:20.376Z,92721.22
2023-03-07T19:58:47.437Z,92725.56
2023-03-07T20:01:17.184Z,92729.47
2023-03-07T20:03:44.600Z,92725.47
2023-03-07T20:06:16.323Z,92728.44
2023-03-07T20:08:43.603Z,92723.91
2023-03-07T20:11:36.622Z,92733.25
2023-03-07T20:14:05.187Z,92733.25
2023-03-07T20:16:33.949Z,92737.63
2023-03-07T20:19:03.864Z,92736.72
2023-03-07T20:21:31.158Z,92744.47
2023-03-07T20:24:01.231Z,92724.41
2023-03-07T20:26:31.708Z,92729.69
2023-03-07T20:28:59.941Z,92721.28
2023-03-07T20:31:27.595Z,92713.69
2023-03-07T20:33:54.412Z,92725.97
2023-03-07T20:36:26.535Z,92731.44
2023-03-07T20:38:56.135Z,92721.31
2023-03-07T20:41:25.877Z,92735.78
2023-03-07T20:43:53.689Z,92739.78
2023-03-07T20:46:22.053Z,92748.06
2023-03-07T20:48:49.494Z,92762.06
2023-03-07T20:51:22.398Z,92761.59
2023-03-07T20:53:52.011Z,92753.03
2023-03-07T20:56:20.420Z,92764.56
2023-03-07T20:58:47.541Z,92767.19
2023-03-07T21:01:18.463Z,92776.97
2023-03-07T21:03:45.450Z,92773.72
2023-03-07T21:06:12.249Z,92773.72
2023-03-07T21:08:39.055Z,92763.16
2023-03-07T21:11:11.457Z,92774.63
2023-03-07T21:13:39.666Z,92775.56
2023-03-07T21:16:12.804Z,92775.09
2023-03-07T21:18:39.908Z,92765.63
2023-03-07T21:21:09.705Z,92773.38
2023-03-07T21:23:36.718Z,92780.84
2023-03-07T21:26:12.249Z,92777.94
2023-03-07T21:28:39.286Z,92785.22
2023-03-07T21:31:08.252Z,92784.44
2023-03-07T21:33:35.829Z,92782.88
2023-03-07T21:36:03.486Z,92784.00
2023-03-07T21:38:31.454Z,92794.88
2023-03-07T21:40:58.350Z,92788.66
2023-03-07T21:43:25.026Z,92792.41
2023-03-07T21:45:51.796Z,92788.97
2023-03-07T21:48:21.869Z,92800.78
2023-03-07T21:50:51.816Z,92807.03
2023-03-07T21:53:19.352Z,92794.88
2023-03-07T21:56:00.459Z,92803.41
2023-03-07T21:58:29.705Z,92803.88
2023-03-07T22:00:57.411Z,92814.16
2023-03-07T22:03:25.933Z,92814.47
2023-03-07T22:05:52.753Z,92803.72
2023-03-07T22:08:20.724Z,92828.00
2023-03-07T22:10:59.414Z,92822.72
2023-03-07T22:13:31.762Z,92822.72
2023-03-07T22:16:00.021Z,92828.94
2023-03-07T22:18:27.053Z,92829.25
2023-03-07T22:20:55.187Z,92820.06
2023-03-07T22:23:26.676Z,92824.44
2023-03-07T22:25:54.060Z,92827.53
2023-03-07T22:28:21.259Z,92836.69
2023-03-07T22:30:49.414Z,92829.41
2023-03-07T22:33:16.613Z,92830.66
2023-03-07T22:35:43.421Z,92836.41
2023-03-07T22:38:10.104Z,92841.06
2023-03-07T22:40:39.800Z,92836.72
2023-03-07T22:43:06.561Z,92828.78
2023-03-07T22:45:33.316Z,92842.47
2023-03-07T22:48:00.174Z,92844.66
2023-03-07T22:50:26.950Z,92846.81
2023-03-07T22:52:55.218Z,92847.59
2023-03-07T22:55:22.300Z,92847.59
2023-03-07T22:57:49.017Z,92841.38
2023-03-07T23:00:16.000Z,92840.13
2023-03-07T23:02:43.123Z,92849.47
2023-03-07T23:05:09.942Z,92851.03
2023-03-07T23:07:36.628Z,92843.25
2023-03-07T23:10:03.760Z,92847.44
2023-03-07T23:12:30.445Z,92844.34
2023-03-07T23:14:57.509Z,92850.88
2023-03-07T23:17:24.218Z,92841.38
2023-03-07T23:19:52.423Z,92842.78
2023-03-07T23:22:19.107Z,92847.91
2023-03-07T23:24:45.836Z,92833.75
2023-03-07T23:27:12.569Z,92829.25
2023-03-07T23:29:39.329Z,92841.38
2023-03-07T23:32:06.190Z,92844.66
2023-03-07T23:34:33.459Z,92861.63
2023-03-07T23:37:00.175Z,92850.88
2023-03-07T23:39:26.785Z,92851.66
2023-03-07T23:41:53.589Z,92843.88
2023-03-07T23:44:20.201Z,92843.09
2023-03-07T23:46:46.909Z,92841.38
2023-03-07T23:49:13.699Z,92847.16
2023-03-07T23:51:40.562Z,92851.81
2023-03-07T23:54:07.323Z,92849.63
2023-03-07T23:56:33.958Z,92838.59
2023-03-07T23:59:00.647Z,92836.56
